sensor_id;sensor_type;location;lat;lon;timestamp;temperature;humidity
31207;DHT22;17834;52.992;8.856;2023-08-17T00:00:07;16.80;99.90
31207;DHT22;17834;52.992;8.856;2023-08-17T00:02:38;16.80;99.90
31207;DHT22;17834;52.992;8.856;2023-08-17T00:05:04;16.80;99.90
31207;DHT22;17834;52.992;8.856;2023-08-17T00:07:31;16.80;99.90
31207;DHT22;17834;52.992;8.856;2023-08-17T00:09:57;16.80;99.90
31207;DHT22;17834;52.992;8.856;2023-08-17T00:12:22;16.80;99.90
31207;DHT22;17834;52.992;8.856;2023-08-17T00:14:48;16.80;99.90
31207;DHT22;17834;52.992;8.856;2023-08-17T00:17:13;16.80;99.90
31207;DHT22;17834;52.992;8.856;2023-08-17T00:19:39;16.80;99.90
31207;DHT22;17834;52.992;8.856;2023-08-17T00:22:04;16.80;99.90
31207;DHT22;17834;52.992;8.856;2023-08-17T00:24:30;16.80;99.90
31207;DHT22;17834;52.992;8.856;2023-08-17T00:26:55;16.80;99.90
31207;DHT22;17834;52.992;8.856;2023-08-17T00:29:21;16.80;99.90
31207;DHT22;17834;52.992;8.856;2023-08-17T00:31:47;16.70;99.90
31207;DHT22;17834;52.992;8.856;2023-08-17T00:34:13;16.70;99.90
31207;DHT22;17834;52.992;8.856;2023-08-17T00:36:38;16.70;99.90
31207;DHT22;17834;52.992;8.856;2023-08-17T00:39:04;16.80;99.90
31207;DHT22;17834;52.992;8.856;2023-08-17T00:41:29;16.70;99.90
31207;DHT22;17834;52.992;8.856;2023-08-17T00:43:56;16.80;99.90
31207;DHT22;17834;52.992;8.856;2023-08-17T00:46:21;16.80;99.90
31207;DHT22;17834;52.992;8.856;2023-08-17T00:48:48;16.70;99.90
31207;DHT22;17834;52.992;8.856;2023-08-17T00:51:14;16.70;99.90
31207;DHT22;17834;52.992;8.856;2023-08-17T00:53:40;16.80;99.90
31207;DHT22;17834;52.992;8.856;2023-08-17T00:56:07;16.70;99.90
31207;DHT22;17834;52.992;8.856;2023-08-17T00:58:33;16.70;99.90
31207;DHT22;17834;52.992;8.856;2023-08-17T01:00:59;16.70;99.90
31207;DHT22;17834;52.992;8.856;2023-08-17T01:03:28;16.70;99.90
31207;DHT22;17834;52.992;8.856;2023-08-17T01:05:56;16.70;99.90
31207;DHT22;17834;52.992;8.856;2023-08-17T01:08:21;16.70;99.90
31207;DHT22;17834;52.992;8.856;2023-08-17T01:13:47;16.70;99.90
31207;DHT22;17834;52.992;8.856;2023-08-17T01:16:18;16.70;99.90
31207;DHT22;17834;52.992;8.856;2023-08-17T01:18:46;16.70;99.90
31207;DHT22;17834;52.992;8.856;2023-08-17T01:21:14;16.70;99.90
31207;DHT22;17834;52.992;8.856;2023-08-17T01:23:44;16.70;99.90
31207;DHT22;17834;52.992;8.856;2023-08-17T01:26:10;16.70;99.90
31207;DHT22;17834;52.992;8.856;2023-08-17T01:28:35;16.70;99.90
31207;DHT22;17834;52.992;8.856;2023-08-17T01:31:12;16.70;99.90
31207;DHT22;17834;52.992;8.856;2023-08-17T01:33:43;16.70;99.90
31207;DHT22;17834;52.992;8.856;2023-08-17T01:36:16;16.70;99.90
31207;DHT22;17834;52.992;8.856;2023-08-17T01:38:44;16.70;99.90
31207;DHT22;17834;52.992;8.856;2023-08-17T01:41:11;16.60;99.90
31207;DHT22;17834;52.992;8.856;2023-08-17T01:43:44;16.60;99.90
31207;DHT22;17834;52.992;8.856;2023-08-17T01:46:13;16.60;99.90
31207;DHT22;17834;52.992;8.856;2023-08-17T01:48:41;16.60;99.90
31207;DHT22;17834;52.992;8.856;2023-08-17T01:51:06;16.60;99.90
31207;DHT22;17834;52.992;8.856;2023-08-17T01:53:32;16.60;99.90
31207;DHT22;17834;52.992;8.856;2023-08-17T01:55:57;16.60;99.90
31207;DHT22;17834;52.992;8.856;2023-08-17T01:58:23;16.60;99.90
31207;DHT22;17834;52.992;8.856;2023-08-17T02:00:48;16.60;99.90
31207;DHT22;17834;52.992;8.856;2023-08-17T02:03:14;16.60;99.90
31207;DHT22;17834;52.992;8.856;2023-08-17T02:05:46;16.60;99.90
31207;DHT22;17834;52.992;8.856;2023-08-17T02:08:12;16.60;99.90
31207;DHT22;17834;52.992;8.856;2023-08-17T02:10:38;16.60;99.90
31207;DHT22;17834;52.992;8.856;2023-08-17T02:13:03;16.60;99.90
31207;DHT22;17834;52.992;8.856;2023-08-17T02:15:29;16.60;99.90
31207;DHT22;17834;52.992;8.856;2023-08-17T02:17:56;16.60;99.90
31207;DHT22;17834;52.992;8.856;2023-08-17T02:20:22;16.60;99.90
31207;DHT22;17834;52.992;8.856;2023-08-17T02:22:47;16.60;99.90
31207;DHT22;17834;52.992;8.856;2023-08-17T02:25:13;16.60;99.90
31207;DHT22;17834;52.992;8.856;2023-08-17T02:27:38;16.60;99.90
31207;DHT22;17834;52.992;8.856;2023-08-17T02:30:04;16.60;99.90
31207;DHT22;17834;52.992;8.856;2023-08-17T02:32:30;16.60;99.90
31207;DHT22;17834;52.992;8.856;2023-08-17T02:34:55;16.60;99.90
31207;DHT22;17834;52.992;8.856;2023-08-17T02:37:21;16.60;99.90
31207;DHT22;17834;52.992;8.856;2023-08-17T02:39:46;16.60;99.90
31207;DHT22;17834;52.992;8.856;2023-08-17T02:42:12;16.60;99.90
31207;DHT22;17834;52.992;8.856;2023-08-17T02:44:37;16.60;99.90
31207;DHT22;17834;52.992;8.856;2023-08-17T02:47:03;16.60;99.90
31207;DHT22;17834;52.992;8.856;2023-08-17T02:49:28;16.50;99.90
31207;DHT22;17834;52.992;8.856;2023-08-17T02:51:54;16.50;99.90
31207;DHT22;17834;52.992;8.856;2023-08-17T02:54:19;16.50;99.90
31207;DHT22;17834;52.992;8.856;2023-08-17T02:56:45;16.50;99.90
31207;DHT22;17834;52.992;8.856;2023-08-17T02:59:10;16.50;99.90
31207;DHT22;17834;52.992;8.856;2023-08-17T03:01:36;16.50;99.90
31207;DHT22;17834;52.992;8.856;2023-08-17T03:04:01;16.50;99.90
31207;DHT22;17834;52.992;8.856;2023-08-17T03:06:27;16.50;99.90
31207;DHT22;17834;52.992;8.856;2023-08-17T03:08:52;16.40;99.90
31207;DHT22;17834;52.992;8.856;2023-08-17T03:11:19;16.50;99.90
31207;DHT22;17834;52.992;8.856;2023-08-17T03:13:45;16.40;99.90
31207;DHT22;17834;52.992;8.856;2023-08-17T03:16:13;16.40;99.90
31207;DHT22;17834;52.992;8.856;2023-08-17T03:18:38;16.40;99.90
31207;DHT22;17834;52.992;8.856;2023-08-17T03:21:04;16.40;99.90
31207;DHT22;17834;52.992;8.856;2023-08-17T03:23:29;16.30;99.90
31207;DHT22;17834;52.992;8.856;2023-08-17T03:25:55;16.40;99.90
31207;DHT22;17834;52.992;8.856;2023-08-17T03:28:20;16.40;99.90
31207;DHT22;17834;52.992;8.856;2023-08-17T03:30:46;16.30;99.90
31207;DHT22;17834;52.992;8.856;2023-08-17T03:33:11;16.30;99.90
31207;DHT22;17834;52.992;8.856;2023-08-17T03:35:37;16.40;99.90
31207;DHT22;17834;52.992;8.856;2023-08-17T03:38:03;16.40;99.90
31207;DHT22;17834;52.992;8.856;2023-08-17T03:40:28;16.40;99.90
31207;DHT22;17834;52.992;8.856;2023-08-17T03:42:54;16.40;99.90
31207;DHT22;17834;52.992;8.856;2023-08-17T03:45:19;16.40;99.90
31207;DHT22;17834;52.992;8.856;2023-08-17T03:47:45;16.50;99.90
31207;DHT22;17834;52.992;8.856;2023-08-17T03:50:10;16.40;99.90
31207;DHT22;17834;52.992;8.856;2023-08-17T03:52:36;16.50;99.90
31207;DHT22;17834;52.992;8.856;2023-08-17T03:55:01;16.50;99.90
31207;DHT22;17834;52.992;8.856;2023-08-17T03:57:27;16.50;99.90
31207;DHT22;17834;52.992;8.856;2023-08-17T03:59:53;16.50;99.90
31207;DHT22;17834;52.992;8.856;2023-08-17T04:02:18;16.50;99.90
31207;DHT22;17834;52.992;8.856;2023-08-17T04:04:44;16.40;99.90
31207;DHT22;17834;52.992;8.856;2023-08-17T04:07:09;16.20;99.90
31207;DHT22;17834;52.992;8.856;2023-08-17T04:09:35;16.00;99.90
31207;DHT22;17834;52.992;8.856;2023-08-17T04:12:01;15.80;99.90
31207;DHT22;17834;52.992;8.856;2023-08-17T04:14:29;15.70;99.90
31207;DHT22;17834;52.992;8.856;2023-08-17T04:16:54;15.60;99.90
31207;DHT22;17834;52.992;8.856;2023-08-17T04:19:21;15.50;99.90
31207;DHT22;17834;52.992;8.856;2023-08-17T04:21:47;15.50;99.90
31207;DHT22;17834;52.992;8.856;2023-08-17T04:24:12;15.40;99.90
31207;DHT22;17834;52.992;8.856;2023-08-17T04:26:38;15.30;99.90
31207;DHT22;17834;52.992;8.856;2023-08-17T04:29:04;15.30;99.90
31207;DHT22;17834;52.992;8.856;2023-08-17T04:31:29;15.20;99.90
31207;DHT22;17834;52.992;8.856;2023-08-17T04:33:55;15.20;99.90
31207;DHT22;17834;52.992;8.856;2023-08-17T04:36:20;15.20;99.90
31207;DHT22;17834;52.992;8.856;2023-08-17T04:38:46;15.20;99.90
31207;DHT22;17834;52.992;8.856;2023-08-17T04:41:11;15.20;99.90
31207;DHT22;17834;52.992;8.856;2023-08-17T04:43:37;15.20;99.90
31207;DHT22;17834;52.992;8.856;2023-08-17T04:46:02;15.20;99.90
31207;DHT22;17834;52.992;8.856;2023-08-17T04:48:28;15.10;99.90
31207;DHT22;17834;52.992;8.856;2023-08-17T04:50:53;15.20;99.90
31207;DHT22;17834;52.992;8.856;2023-08-17T04:53:19;15.10;99.90
31207;DHT22;17834;52.992;8.856;2023-08-17T04:55:44;15.10;99.90
31207;DHT22;17834;52.992;8.856;2023-08-17T04:58:10;15.10;99.90
31207;DHT22;17834;52.992;8.856;2023-08-17T05:00:35;15.10;99.90
31207;DHT22;17834;52.992;8.856;2023-08-17T05:03:01;15.10;99.90
31207;DHT22;17834;52.992;8.856;2023-08-17T05:05:26;15.20;99.90
31207;DHT22;17834;52.992;8.856;2023-08-17T05:07:52;15.10;99.90
31207;DHT22;17834;52.992;8.856;2023-08-17T05:10:18;15.10;99.90
31207;DHT22;17834;52.992;8.856;2023-08-17T05:12:44;15.20;99.90
31207;DHT22;17834;52.992;8.856;2023-08-17T05:15:09;15.20;99.90
31207;DHT22;17834;52.992;8.856;2023-08-17T05:17:35;15.20;99.90
31207;DHT22;17834;52.992;8.856;2023-08-17T05:20:00;15.20;99.90
31207;DHT22;17834;52.992;8.856;2023-08-17T05:22:27;15.30;99.90
31207;DHT22;17834;52.992;8.856;2023-08-17T05:24:53;15.30;99.90
31207;DHT22;17834;52.992;8.856;2023-08-17T05:27:18;15.30;99.90
31207;DHT22;17834;52.992;8.856;2023-08-17T05:29:44;15.40;99.90
31207;DHT22;17834;52.992;8.856;2023-08-17T05:32:09;15.40;99.90
31207;DHT22;17834;52.992;8.856;2023-08-17T05:34:35;15.50;99.90
31207;DHT22;17834;52.992;8.856;2023-08-17T05:37:00;15.50;99.90
31207;DHT22;17834;52.992;8.856;2023-08-17T05:39:26;15.50;99.90
31207;DHT22;17834;52.992;8.856;2023-08-17T05:41:51;15.50;99.90
31207;DHT22;17834;52.992;8.856;2023-08-17T05:44:17;15.60;99.90
31207;DHT22;17834;52.992;8.856;2023-08-17T05:46:43;15.60;99.90
31207;DHT22;17834;52.992;8.856;2023-08-17T05:49:09;15.60;99.90
31207;DHT22;17834;52.992;8.856;2023-08-17T05:51:34;15.60;99.90
31207;DHT22;17834;52.992;8.856;2023-08-17T05:54:00;15.70;99.90
31207;DHT22;17834;52.992;8.856;2023-08-17T05:56:25;15.70;99.90
31207;DHT22;17834;52.992;8.856;2023-08-17T05:58:51;15.70;99.90
31207;DHT22;17834;52.992;8.856;2023-08-17T06:01:16;15.70;99.90
31207;DHT22;17834;52.992;8.856;2023-08-17T06:03:42;15.70;99.90
31207;DHT22;17834;52.992;8.856;2023-08-17T06:06:09;15.70;99.90
31207;DHT22;17834;52.992;8.856;2023-08-17T06:08:34;15.80;99.90
31207;DHT22;17834;52.992;8.856;2023-08-17T06:11:00;15.90;99.90
31207;DHT22;17834;52.992;8.856;2023-08-17T06:13:25;15.90;99.90
31207;DHT22;17834;52.992;8.856;2023-08-17T06:15:51;15.80;99.90
31207;DHT22;17834;52.992;8.856;2023-08-17T06:18:16;15.90;99.90
31207;DHT22;17834;52.992;8.856;2023-08-17T06:20:42;15.80;99.90
31207;DHT22;17834;52.992;8.856;2023-08-17T06:23:08;15.80;99.90
31207;DHT22;17834;52.992;8.856;2023-08-17T06:25:33;15.90;99.90
31207;DHT22;17834;52.992;8.856;2023-08-17T06:28:00;15.90;99.90
31207;DHT22;17834;52.992;8.856;2023-08-17T06:30:25;15.90;99.90
31207;DHT22;17834;52.992;8.856;2023-08-17T06:32:51;16.00;99.90
31207;DHT22;17834;52.992;8.856;2023-08-17T06:35:17;16.00;99.90
31207;DHT22;17834;52.992;8.856;2023-08-17T06:37:42;16.10;99.90
31207;DHT22;17834;52.992;8.856;2023-08-17T06:40:08;16.10;99.90
31207;DHT22;17834;52.992;8.856;2023-08-17T06:42:37;16.10;99.90
31207;DHT22;17834;52.992;8.856;2023-08-17T06:45:03;16.10;99.90
31207;DHT22;17834;52.992;8.856;2023-08-17T06:47:29;16.10;99.90
31207;DHT22;17834;52.992;8.856;2023-08-17T06:49:55;16.10;99.90
31207;DHT22;17834;52.992;8.856;2023-08-17T06:52:23;16.20;99.90
31207;DHT22;17834;52.992;8.856;2023-08-17T06:54:48;16.10;99.90
31207;DHT22;17834;52.992;8.856;2023-08-17T06:57:14;16.20;99.90
31207;DHT22;17834;52.992;8.856;2023-08-17T06:59:39;16.10;99.90
31207;DHT22;17834;52.992;8.856;2023-08-17T07:02:05;16.10;99.90
31207;DHT22;17834;52.992;8.856;2023-08-17T07:04:31;16.10;99.90
31207;DHT22;17834;52.992;8.856;2023-08-17T07:06:57;16.10;99.90
31207;DHT22;17834;52.992;8.856;2023-08-17T07:09:22;16.10;99.90
31207;DHT22;17834;52.992;8.856;2023-08-17T07:11:48;16.10;99.90
31207;DHT22;17834;52.992;8.856;2023-08-17T07:14:13;16.10;99.90
31207;DHT22;17834;52.992;8.856;2023-08-17T07:16:39;16.10;99.90
31207;DHT22;17834;52.992;8.856;2023-08-17T07:19:04;16.10;99.90
31207;DHT22;17834;52.992;8.856;2023-08-17T07:21:30;16.10;99.90
31207;DHT22;17834;52.992;8.856;2023-08-17T07:23:55;16.10;99.90
31207;DHT22;17834;52.992;8.856;2023-08-17T07:26:21;16.20;99.90
31207;DHT22;17834;52.992;8.856;2023-08-17T07:28:48;16.10;99.90
31207;DHT22;17834;52.992;8.856;2023-08-17T07:31:13;16.20;99.90
31207;DHT22;17834;52.992;8.856;2023-08-17T07:33:39;16.10;99.90
31207;DHT22;17834;52.992;8.856;2023-08-17T07:36:05;16.20;99.90
31207;DHT22;17834;52.992;8.856;2023-08-17T07:38:30;16.20;99.90
31207;DHT22;17834;52.992;8.856;2023-08-17T07:40:56;16.30;99.90
31207;DHT22;17834;52.992;8.856;2023-08-17T07:43:22;16.30;99.90
31207;DHT22;17834;52.992;8.856;2023-08-17T07:45:55;16.40;99.90
31207;DHT22;17834;52.992;8.856;2023-08-17T07:48:21;16.40;99.90
31207;DHT22;17834;52.992;8.856;2023-08-17T07:50:50;16.50;99.90
31207;DHT22;17834;52.992;8.856;2023-08-17T07:53:19;16.60;99.90
31207;DHT22;17834;52.992;8.856;2023-08-17T07:55:45;16.60;99.90
31207;DHT22;17834;52.992;8.856;2023-08-17T07:58:11;16.70;99.90
31207;DHT22;17834;52.992;8.856;2023-08-17T08:00:36;16.80;99.90
31207;DHT22;17834;52.992;8.856;2023-08-17T08:03:02;16.90;99.90
31207;DHT22;17834;52.992;8.856;2023-08-17T08:05:28;17.00;99.90
31207;DHT22;17834;52.992;8.856;2023-08-17T08:07:53;17.10;99.90
31207;DHT22;17834;52.992;8.856;2023-08-17T08:10:19;17.20;99.90
31207;DHT22;17834;52.992;8.856;2023-08-17T08:12:44;17.50;99.90
31207;DHT22;17834;52.992;8.856;2023-08-17T08:15:10;17.40;99.90
31207;DHT22;17834;52.992;8.856;2023-08-17T08:17:36;17.50;99.90
31207;DHT22;17834;52.992;8.856;2023-08-17T08:20:02;17.60;99.90
31207;DHT22;17834;52.992;8.856;2023-08-17T08:22:28;17.70;99.90
31207;DHT22;17834;52.992;8.856;2023-08-17T08:24:53;17.70;99.90
31207;DHT22;17834;52.992;8.856;2023-08-17T08:27:19;17.70;99.90
31207;DHT22;17834;52.992;8.856;2023-08-17T08:29:44;17.70;99.90
31207;DHT22;17834;52.992;8.856;2023-08-17T08:32:10;17.70;99.90
31207;DHT22;17834;52.992;8.856;2023-08-17T08:34:36;17.80;99.90
31207;DHT22;17834;52.992;8.856;2023-08-17T08:37:01;17.70;99.90
31207;DHT22;17834;52.992;8.856;2023-08-17T08:39:27;17.70;99.90
31207;DHT22;17834;52.992;8.856;2023-08-17T08:41:53;17.90;99.90
31207;DHT22;17834;52.992;8.856;2023-08-17T08:44:18;18.00;99.90
31207;DHT22;17834;52.992;8.856;2023-08-17T08:46:45;18.10;99.90
31207;DHT22;17834;52.992;8.856;2023-08-17T08:49:11;18.10;99.90
31207;DHT22;17834;52.992;8.856;2023-08-17T08:51:41;18.10;99.90
31207;DHT22;17834;52.992;8.856;2023-08-17T08:54:12;18.10;99.90
31207;DHT22;17834;52.992;8.856;2023-08-17T08:56:38;18.00;99.90
31207;DHT22;17834;52.992;8.856;2023-08-17T08:59:08;17.90;99.90
31207;DHT22;17834;52.992;8.856;2023-08-17T09:01:34;17.70;99.90
31207;DHT22;17834;52.992;8.856;2023-08-17T09:03:59;17.70;99.90
31207;DHT22;17834;52.992;8.856;2023-08-17T09:06:29;17.70;99.90
31207;DHT22;17834;52.992;8.856;2023-08-17T09:08:57;17.60;99.90
31207;DHT22;17834;52.992;8.856;2023-08-17T09:11:23;17.50;99.90
31207;DHT22;17834;52.992;8.856;2023-08-17T09:13:48;17.50;99.90
31207;DHT22;17834;52.992;8.856;2023-08-17T09:16:14;17.50;99.90
31207;DHT22;17834;52.992;8.856;2023-08-17T09:18:39;17.60;99.90
31207;DHT22;17834;52.992;8.856;2023-08-17T09:21:05;17.60;99.90
31207;DHT22;17834;52.992;8.856;2023-08-17T09:23:31;17.70;99.90
31207;DHT22;17834;52.992;8.856;2023-08-17T09:25:56;17.80;99.90
31207;DHT22;17834;52.992;8.856;2023-08-17T09:28:23;17.80;99.90
31207;DHT22;17834;52.992;8.856;2023-08-17T09:31:00;17.70;99.90
31207;DHT22;17834;52.992;8.856;2023-08-17T09:33:28;17.90;99.90
31207;DHT22;17834;52.992;8.856;2023-08-17T09:35:55;17.90;99.90
31207;DHT22;17834;52.992;8.856;2023-08-17T09:38:21;18.00;99.90
31207;DHT22;17834;52.992;8.856;2023-08-17T09:40:47;18.20;99.90
31207;DHT22;17834;52.992;8.856;2023-08-17T09:43:17;18.40;99.90
31207;DHT22;17834;52.992;8.856;2023-08-17T09:45:44;18.80;99.90
31207;DHT22;17834;52.992;8.856;2023-08-17T09:48:14;19.10;99.90
31207;DHT22;17834;52.992;8.856;2023-08-17T09:50:42;19.40;99.90
31207;DHT22;17834;52.992;8.856;2023-08-17T09:55:40;19.40;99.90
31207;DHT22;17834;52.992;8.856;2023-08-17T09:58:06;19.60;99.90
31207;DHT22;17834;52.992;8.856;2023-08-17T10:00:33;19.50;99.90
31207;DHT22;17834;52.992;8.856;2023-08-17T10:03:02;19.60;99.90
31207;DHT22;17834;52.992;8.856;2023-08-17T10:05:31;19.50;99.90
31207;DHT22;17834;52.992;8.856;2023-08-17T10:07:57;19.50;99.90
31207;DHT22;17834;52.992;8.856;2023-08-17T10:10:26;19.40;99.90
31207;DHT22;17834;52.992;8.856;2023-08-17T10:13:09;19.50;99.90
31207;DHT22;17834;52.992;8.856;2023-08-17T10:15:38;19.40;99.90
31207;DHT22;17834;52.992;8.856;2023-08-17T10:18:16;19.40;99.90
31207;DHT22;17834;52.992;8.856;2023-08-17T10:20:53;19.40;99.90
31207;DHT22;17834;52.992;8.856;2023-08-17T10:23:22;19.60;99.90
31207;DHT22;17834;52.992;8.856;2023-08-17T10:25:49;19.70;99.90
31207;DHT22;17834;52.992;8.856;2023-08-17T10:28:16;19.60;99.90
31207;DHT22;17834;52.992;8.856;2023-08-17T10:30:43;19.40;99.90
31207;DHT22;17834;52.992;8.856;2023-08-17T10:33:10;19.20;99.90
31207;DHT22;17834;52.992;8.856;2023-08-17T10:35:35;19.00;99.90
31207;DHT22;17834;52.992;8.856;2023-08-17T10:38:03;18.70;99.90
31207;DHT22;17834;52.992;8.856;2023-08-17T10:40:36;18.70;99.90
31207;DHT22;17834;52.992;8.856;2023-08-17T10:43:02;18.80;99.90
31207;DHT22;17834;52.992;8.856;2023-08-17T10:50:37;18.80;99.90
31207;DHT22;17834;52.992;8.856;2023-08-17T10:53:11;18.80;99.90
31207;DHT22;17834;52.992;8.856;2023-08-17T10:55:39;18.80;99.90
31207;DHT22;17834;52.992;8.856;2023-08-17T10:58:08;18.70;99.90
31207;DHT22;17834;52.992;8.856;2023-08-17T11:00:37;18.70;99.90
31207;DHT22;17834;52.992;8.856;2023-08-17T11:03:07;18.90;99.90
31207;DHT22;17834;52.992;8.856;2023-08-17T11:05:50;19.00;99.90
31207;DHT22;17834;52.992;8.856;2023-08-17T11:08:32;19.30;99.90
31207;DHT22;17834;52.992;8.856;2023-08-17T11:11:14;19.20;99.90
31207;DHT22;17834;52.992;8.856;2023-08-17T11:13:42;19.30;99.90
31207;DHT22;17834;52.992;8.856;2023-08-17T11:16:09;19.50;99.90
31207;DHT22;17834;52.992;8.856;2023-08-17T11:18:35;19.50;99.90
31207;DHT22;17834;52.992;8.856;2023-08-17T11:21:05;19.60;99.90
31207;DHT22;17834;52.992;8.856;2023-08-17T11:23:33;19.90;99.90
31207;DHT22;17834;52.992;8.856;2023-08-17T11:25:59;20.30;99.90
31207;DHT22;17834;52.992;8.856;2023-08-17T11:28:25;20.60;99.90
31207;DHT22;17834;52.992;8.856;2023-08-17T11:31:01;20.70;99.90
31207;DHT22;17834;52.992;8.856;2023-08-17T11:33:29;20.60;99.90
31207;DHT22;17834;52.992;8.856;2023-08-17T11:35:55;20.60;99.90
31207;DHT22;17834;52.992;8.856;2023-08-17T11:38:21;20.70;99.90
31207;DHT22;17834;52.992;8.856;2023-08-17T11:40:47;20.70;99.90
31207;DHT22;17834;52.992;8.856;2023-08-17T12:42:02;20.20;99.90
31207;DHT22;17834;52.992;8.856;2023-08-17T12:44:27;18.20;99.90
31207;DHT22;17834;52.992;8.856;2023-08-17T12:46:53;18.10;99.90
31207;DHT22;17834;52.992;8.856;2023-08-17T12:49:18;17.90;99.90
31207;DHT22;17834;52.992;8.856;2023-08-17T12:51:44;17.90;99.90
31207;DHT22;17834;52.992;8.856;2023-08-17T12:54:09;17.80;99.90
31207;DHT22;17834;52.992;8.856;2023-08-17T12:56:35;17.80;99.90
31207;DHT22;17834;52.992;8.856;2023-08-17T12:59:00;17.90;99.90
31207;DHT22;17834;52.992;8.856;2023-08-17T13:01:26;17.90;99.90
31207;DHT22;17834;52.992;8.856;2023-08-17T13:03:51;17.90;99.90
31207;DHT22;17834;52.992;8.856;2023-08-17T13:06:17;18.00;99.90
31207;DHT22;17834;52.992;8.856;2023-08-17T13:08:42;18.00;99.90
31207;DHT22;17834;52.992;8.856;2023-08-17T13:11:08;18.10;99.90
31207;DHT22;17834;52.992;8.856;2023-08-17T13:13:33;18.10;99.90
31207;DHT22;17834;52.992;8.856;2023-08-17T13:15:59;18.20;99.90
31207;DHT22;17834;52.992;8.856;2023-08-17T13:18:25;18.30;99.90
31207;DHT22;17834;52.992;8.856;2023-08-17T13:20:50;18.30;99.90
31207;DHT22;17834;52.992;8.856;2023-08-17T13:23:16;18.30;99.90
31207;DHT22;17834;52.992;8.856;2023-08-17T13:25:41;18.20;99.90
31207;DHT22;17834;52.992;8.856;2023-08-17T13:28:07;18.20;99.90
31207;DHT22;17834;52.992;8.856;2023-08-17T13:30:33;18.10;99.90
31207;DHT22;17834;52.992;8.856;2023-08-17T13:32:58;17.90;99.90
31207;DHT22;17834;52.992;8.856;2023-08-17T13:35:24;17.90;99.90
31207;DHT22;17834;52.992;8.856;2023-08-17T13:37:53;17.90;99.90
31207;DHT22;17834;52.992;8.856;2023-08-17T13:40:24;17.90;99.90
31207;DHT22;17834;52.992;8.856;2023-08-17T13:42:50;18.00;99.90
31207;DHT22;17834;52.992;8.856;2023-08-17T13:45:15;18.00;99.90
31207;DHT22;17834;52.992;8.856;2023-08-17T13:47:41;18.00;99.90
31207;DHT22;17834;52.992;8.856;2023-08-17T13:50:07;17.90;99.90
31207;DHT22;17834;52.992;8.856;2023-08-17T13:52:32;17.80;99.90
31207;DHT22;17834;52.992;8.856;2023-08-17T13:54:58;17.90;99.90
31207;DHT22;17834;52.992;8.856;2023-08-17T13:57:24;17.80;99.90
31207;DHT22;17834;52.992;8.856;2023-08-17T13:59:49;18.00;99.90
31207;DHT22;17834;52.992;8.856;2023-08-17T14:02:15;18.20;99.90
31207;DHT22;17834;52.992;8.856;2023-08-17T14:04:40;18.30;99.90
31207;DHT22;17834;52.992;8.856;2023-08-17T14:07:07;18.30;99.90
31207;DHT22;17834;52.992;8.856;2023-08-17T14:09:32;18.20;99.90
31207;DHT22;17834;52.992;8.856;2023-08-17T14:11:58;18.30;99.90
31207;DHT22;17834;52.992;8.856;2023-08-17T14:14:25;18.20;99.90
31207;DHT22;17834;52.992;8.856;2023-08-17T14:16:50;18.10;99.90
31207;DHT22;17834;52.992;8.856;2023-08-17T14:19:16;18.10;99.90
31207;DHT22;17834;52.992;8.856;2023-08-17T14:21:41;18.00;99.90
31207;DHT22;17834;52.992;8.856;2023-08-17T14:24:07;17.90;99.90
31207;DHT22;17834;52.992;8.856;2023-08-17T14:26:33;17.90;99.90
31207;DHT22;17834;52.992;8.856;2023-08-17T14:28:59;17.80;99.90
31207;DHT22;17834;52.992;8.856;2023-08-17T14:31:24;18.00;99.90
31207;DHT22;17834;52.992;8.856;2023-08-17T14:33:50;18.00;99.90
31207;DHT22;17834;52.992;8.856;2023-08-17T14:36:16;18.00;99.90
31207;DHT22;17834;52.992;8.856;2023-08-17T14:38:41;17.90;99.90
31207;DHT22;17834;52.992;8.856;2023-08-17T14:41:08;17.80;99.90
31207;DHT22;17834;52.992;8.856;2023-08-17T14:43:34;17.70;99.90
31207;DHT22;17834;52.992;8.856;2023-08-17T14:46:00;17.70;99.90
31207;DHT22;17834;52.992;8.856;2023-08-17T14:48:25;17.80;99.90
31207;DHT22;17834;52.992;8.856;2023-08-17T14:50:51;17.70;99.90
31207;DHT22;17834;52.992;8.856;2023-08-17T14:53:17;17.70;99.90
31207;DHT22;17834;52.992;8.856;2023-08-17T14:55:43;17.70;99.90
31207;DHT22;17834;52.992;8.856;2023-08-17T14:58:09;17.80;99.90
31207;DHT22;17834;52.992;8.856;2023-08-17T15:00:34;17.90;99.90
31207;DHT22;17834;52.992;8.856;2023-08-17T15:03:00;17.80;99.90
31207;DHT22;17834;52.992;8.856;2023-08-17T15:05:26;17.90;99.90
31207;DHT22;17834;52.992;8.856;2023-08-17T15:07:52;17.70;99.90
31207;DHT22;17834;52.992;8.856;2023-08-17T15:10:18;17.70;99.90
31207;DHT22;17834;52.992;8.856;2023-08-17T15:12:43;17.80;99.90
31207;DHT22;17834;52.992;8.856;2023-08-17T15:15:09;17.70;99.90
31207;DHT22;17834;52.992;8.856;2023-08-17T15:17:35;17.70;99.90
31207;DHT22;17834;52.992;8.856;2023-08-17T15:20:01;17.60;99.90
31207;DHT22;17834;52.992;8.856;2023-08-17T15:22:27;17.60;99.90
31207;DHT22;17834;52.992;8.856;2023-08-17T15:24:53;17.40;99.90
31207;DHT22;17834;52.992;8.856;2023-08-17T15:27:18;17.30;99.90
31207;DHT22;17834;52.992;8.856;2023-08-17T15:29:44;17.40;99.90
31207;DHT22;17834;52.992;8.856;2023-08-17T15:32:09;17.30;99.90
31207;DHT22;17834;52.992;8.856;2023-08-17T15:34:35;17.50;99.90
31207;DHT22;17834;52.992;8.856;2023-08-17T15:37:01;17.40;99.90
31207;DHT22;17834;52.992;8.856;2023-08-17T15:39:27;17.40;99.90
31207;DHT22;17834;52.992;8.856;2023-08-17T15:41:53;17.40;99.90
31207;DHT22;17834;52.992;8.856;2023-08-17T15:44:18;17.30;99.90
31207;DHT22;17834;52.992;8.856;2023-08-17T15:46:44;17.30;99.90
31207;DHT22;17834;52.992;8.856;2023-08-17T15:49:09;17.40;99.90
31207;DHT22;17834;52.992;8.856;2023-08-17T15:51:37;17.40;99.90
31207;DHT22;17834;52.992;8.856;2023-08-17T15:54:03;17.40;99.90
31207;DHT22;17834;52.992;8.856;2023-08-17T15:56:28;17.40;99.90
31207;DHT22;17834;52.992;8.856;2023-08-17T15:58:54;17.40;99.90
31207;DHT22;17834;52.992;8.856;2023-08-17T16:01:19;17.30;99.90
31207;DHT22;17834;52.992;8.856;2023-08-17T16:03:45;17.40;99.90
31207;DHT22;17834;52.992;8.856;2023-08-17T16:06:10;17.30;99.90
31207;DHT22;17834;52.992;8.856;2023-08-17T16:08:37;17.30;99.90
31207;DHT22;17834;52.992;8.856;2023-08-17T16:11:02;17.20;99.90
31207;DHT22;17834;52.992;8.856;2023-08-17T16:13:28;17.20;99.90
31207;DHT22;17834;52.992;8.856;2023-08-17T16:15:55;17.20;99.90
31207;DHT22;17834;52.992;8.856;2023-08-17T16:18:21;17.10;99.90
31207;DHT22;17834;52.992;8.856;2023-08-17T16:20:47;17.10;99.90
31207;DHT22;17834;52.992;8.856;2023-08-17T16:23:13;17.10;99.90
31207;DHT22;17834;52.992;8.856;2023-08-17T16:25:38;17.20;99.90
31207;DHT22;17834;52.992;8.856;2023-08-17T16:28:04;17.10;99.90
31207;DHT22;17834;52.992;8.856;2023-08-17T16:30:30;17.10;99.90
31207;DHT22;17834;52.992;8.856;2023-08-17T16:32:55;17.10;99.90